Time;durP1;ratioP1;P1;durP2;ratioP2;P2;SDS_P1;SDS_P2;PMS_P1;PMS_P2;Temp;Humidity;BMP_temperature;BMP_pressure;BME280_temperature;BME280_humidity;BME280_pressure;Samples;Min_cycle;Max_cycle;Signal;HPM_P1;HPM_P2
2022/11/28 00:02:02;;;;;;;17.20;9.15;;;;;;;7.57;66.09;100841.50;5088509;28;20028;-26
2022/11/28 00:04:27;;;;;;;20.13;8.93;;;;;;;7.51;66.33;100856.28;5088843;28;20039;-27
2022/11/28 00:06:53;;;;;;;18.95;9.52;;;;;;;7.65;66.58;100860.81;5088286;28;20489;-29
2022/11/28 00:09:19;;;;;;;20.10;9.30;;;;;;;7.70;66.00;100840.84;5088960;28;20483;-26
2022/11/28 00:11:46;;;;;;;17.40;9.35;;;;;;;7.78;66.03;100872.63;5088650;28;20036;-27
2022/11/28 00:14:12;;;;;;;19.02;9.68;;;;;;;7.53;66.47;100846.31;5088458;28;20056;-26
2022/11/28 00:16:38;;;;;;;18.77;9.73;;;;;;;7.41;67.42;100839.78;5088641;28;20063;-28
2022/11/28 00:19:05;;;;;;;16.98;8.80;;;;;;;7.51;66.95;100858.94;5070423;28;20089;-27
2022/11/28 00:21:31;;;;;;;19.45;9.30;;;;;;;7.46;67.86;100861.31;5089031;28;20020;-28
2022/11/28 00:23:57;;;;;;;20.65;10.02;;;;;;;7.31;67.37;100836.56;5069912;28;20024;-30
2022/11/28 00:26:29;;;;;;;19.27;9.40;;;;;;;7.19;67.51;100823.72;5088404;28;20111;-27
2022/11/28 00:28:55;;;;;;;20.45;10.38;;;;;;;7.34;67.75;100846.84;5088278;28;20021;-27
2022/11/28 00:31:23;;;;;;;21.02;10.07;;;;;;;7.45;67.68;100857.00;5088358;28;20024;-26
2022/11/28 00:33:50;;;;;;;19.73;9.98;;;;;;;7.43;67.19;100851.88;5088371;28;20698;-27
2022/11/28 00:36:16;;;;;;;17.70;9.77;;;;;;;7.39;67.58;100839.16;5088187;28;20028;-28
2022/11/28 00:38:42;;;;;;;20.17;9.80;;;;;;;7.46;68.12;100845.41;5069968;28;20149;-29
2022/11/28 00:41:14;;;;;;;18.27;9.77;;;;;;;7.48;69.14;100856.66;5088140;28;20503;-27
2022/11/28 00:43:40;;;;;;;18.30;10.48;;;;;;;7.33;70.00;100851.28;5088177;28;20032;-30
2022/11/28 00:46:06;;;;;;;18.40;9.52;;;;;;;7.24;69.80;100837.28;5086481;28;20043;-26
2022/11/28 00:48:32;;;;;;;20.40;10.43;;;;;;;7.14;70.76;100831.38;5069931;28;20028;-26
2022/11/28 00:51:08;;;;;;;17.85;9.70;;;;;;;7.25;71.56;100848.69;5087846;28;20051;-29
2022/11/28 00:53:34;;;;;;;17.17;9.70;;;;;;;7.12;71.56;100828.09;5088081;28;20031;-28
2022/11/28 00:55:59;;;;;;;18.85;9.43;;;;;;;7.27;71.42;100841.38;5069227;28;20032;-27
2022/11/28 00:58:25;;;;;;;17.20;9.52;;;;;;;7.27;70.46;100829.97;5087763;28;20035;-27
2022/11/28 01:00:50;;;;;;;19.08;10.00;;;;;;;7.29;71.81;100838.56;5086353;28;20108;-29
2022/11/28 01:03:16;;;;;;;19.23;9.40;;;;;;;7.32;71.24;100840.88;5069682;28;20028;-27
2022/11/28 01:05:42;;;;;;;23.13;10.23;;;;;;;7.33;70.79;100815.97;5086035;28;20044;-26
2022/11/28 01:08:10;;;;;;;17.63;10.20;;;;;;;7.36;70.52;100834.22;5087333;28;20099;-27
2022/11/28 01:10:41;;;;;;;17.23;9.30;;;;;;;7.37;70.46;100834.00;5068348;28;20028;-30
2022/11/28 01:13:07;;;;;;;19.02;9.80;;;;;;;7.35;70.91;100821.94;5087726;28;20034;-27
2022/11/28 01:15:32;;;;;;;16.17;9.30;;;;;;;7.30;71.34;100825.13;5087623;28;20085;-26
2022/11/28 01:17:58;;;;;;;20.83;9.57;;;;;;;7.34;71.14;100826.44;5069045;28;20024;-26
2022/11/28 01:20:24;;;;;;;17.95;10.15;;;;;;;7.35;71.85;100832.53;5087533;28;20555;-28
2022/11/28 01:22:49;;;;;;;17.50;10.48;;;;;;;7.17;71.83;100809.81;5069070;28;20126;-28
2022/11/28 01:25:15;;;;;;;17.65;9.88;;;;;;;7.38;71.13;100821.59;5087285;28;20426;-27
2022/11/28 01:27:40;;;;;;;16.15;9.38;;;;;;;7.26;71.74;100820.38;5087056;28;20799;-30
2022/11/28 01:30:06;;;;;;;17.90;9.73;;;;;;;7.11;71.68;100810.53;5087380;28;20031;-26
2022/11/28 01:32:31;;;;;;;20.10;10.88;;;;;;;7.11;72.19;100794.63;5087202;28;20419;-26
2022/11/28 01:34:57;;;;;;;28.15;13.80;;;;;;;7.16;72.95;100813.47;5087196;28;20032;-26
2022/11/28 01:37:22;;;;;;;23.88;11.88;;;;;;;7.09;72.63;100788.66;5087088;28;20407;-25
2022/11/28 01:39:48;;;;;;;24.00;12.07;;;;;;;7.22;72.47;100807.44;5087157;28;20031;-30
2022/11/28 01:42:18;;;;;;;20.65;10.27;;;;;;;7.35;72.92;100811.31;5086947;28;20038;-26
2022/11/28 01:44:47;;;;;;;22.73;11.95;;;;;;;7.31;72.81;100810.03;5087198;28;20099;-27
2022/11/28 01:47:14;;;;;;;22.27;12.40;;;;;;;7.14;73.25;100804.84;5086999;28;20050;-31
2022/11/28 01:49:40;;;;;;;34.83;14.52;;;;;;;7.02;74.01;100785.06;5086841;28;20032;-28
2022/11/28 01:52:12;;;;;;;26.30;13.43;;;;;;;7.25;73.20;100811.56;5085267;28;20032;-26
2022/11/28 01:54:41;;;;;;;24.98;11.80;;;;;;;7.12;73.57;100785.66;5085271;28;20024;-27
2022/11/28 01:57:16;;;;;;;33.70;14.60;;;;;;;7.17;74.34;100806.31;5086729;28;20047;-26
2022/11/28 02:00:13;;;;;;;21.70;11.25;;;;;;;7.00;74.31;100795.03;5086784;28;20028;-29
2022/11/28 02:02:46;;;;;;;18.73;9.73;;;;;;;7.15;74.38;100810.97;5086600;28;20051;-27
2022/11/28 02:05:12;;;;;;;34.00;14.85;;;;;;;7.11;74.19;100794.63;5086747;28;20035;-27
2022/11/28 02:07:38;;;;;;;29.55;15.27;;;;;;;7.27;73.68;100798.13;5068235;28;20059;-27
2022/11/28 02:10:07;;;;;;;21.40;10.43;;;;;;;7.05;75.45;100795.34;5086451;28;20021;-29
2022/11/28 02:12:54;;;;;;;17.77;9.30;;;;;;;7.02;76.10;100795.66;5086767;28;20036;-28
2022/11/28 02:15:22;;;;;;;17.75;9.13;;;;;;;6.96;76.41;100775.16;5086669;28;20503;-26
2022/11/28 02:18:02;;;;;;;19.63;9.30;;;;;;;7.18;76.09;100795.53;5086736;28;20118;-26
2022/11/28 02:21:23;;;;;;;18.55;9.70;;;;;;;7.27;76.01;100790.16;5086953;28;20093;-27
2022/11/28 02:23:54;;;;;;;22.15;10.05;;;;;;;7.27;75.82;100792.81;5008016;28;20042;-27
2022/11/28 02:26:29;;;;;;;20.10;10.75;;;;;;;7.25;75.93;100785.03;5059245;28;20477;-29
2022/11/28 02:29:26;;;;;;;15.02;8.00;;;;;;;7.22;74.47;100796.00;5072488;28;20024;-27
2022/11/28 02:32:10;;;;;;;16.67;8.65;;;;;;;7.23;74.81;100793.19;5089176;28;20074;-28
2022/11/28 02:35:02;;;;;;;18.38;9.60;;;;;;;7.31;75.26;100783.50;5090871;28;20032;-26
2022/11/28 02:37:42;;;;;;;19.25;10.43;;;;;;;7.21;75.73;100771.31;5072516;28;20032;-27
2022/11/28 02:40:27;;;;;;;25.35;12.88;;;;;;;7.01;76.95;100783.44;5090292;28;20088;-29
2022/11/28 02:43:04;;;;;;;21.00;10.15;;;;;;;6.95;79.27;100784.13;5089190;28;20038;-27
2022/11/28 02:45:29;;;;;;;23.27;10.60;;;;;;;7.02;78.77;100787.72;5090449;28;20445;-25
2022/11/28 02:48:03;;;;;;;24.05;12.93;;;;;;;6.77;78.80;100756.09;5090460;28;20288;-26
2022/11/28 02:50:38;;;;;;;23.08;10.95;;;;;;;6.92;78.59;100784.47;5090205;28;20096;-31
2022/11/28 02:53:13;;;;;;;24.73;12.55;;;;;;;6.63;79.15;100759.50;5090253;28;20039;-28
2022/11/28 02:55:41;;;;;;;21.08;11.02;;;;;;;6.68;80.35;100778.38;5090365;28;20032;-28
2022/11/28 02:58:09;;;;;;;22.45;11.13;;;;;;;6.56;80.64;100748.78;5071906;28;20036;-27
2022/11/28 03:00:38;;;;;;;18.02;9.75;;;;;;;6.68;80.55;100782.81;5090170;28;20051;-26
2022/11/28 03:03:30;;;;;;;19.63;10.30;;;;;;;6.61;81.70;100788.00;5089993;28;20085;-30
2022/11/28 03:06:23;;;;;;;18.75;9.65;;;;;;;6.75;81.69;100781.94;5088541;28;20028;-31
2022/11/28 03:08:48;;;;;;;15.40;8.43;;;;;;;6.58;82.49;100764.50;5089886;28;20056;-29
2022/11/28 03:11:45;;;;;;;16.42;8.48;;;;;;;6.76;82.11;100799.50;5089918;28;20484;-27
2022/11/28 03:14:21;;;;;;;15.63;8.05;;;;;;;6.67;81.23;100787.31;5089678;28;20415;-26
2022/11/28 03:17:18;;;;;;;18.88;8.82;;;;;;;6.77;81.56;100792.38;5089988;28;20028;-26
2022/11/28 03:20:12;;;;;;;14.93;8.00;;;;;;;6.73;81.87;100799.84;5090076;28;21120;-28
2022/11/28 03:23:01;;;;;;;17.52;9.00;;;;;;;6.77;81.03;100785.25;5090071;28;20491;-30
2022/11/28 03:25:39;;;;;;;15.70;7.82;;;;;;;6.71;80.87;100777.19;5089763;28;20020;-27
2022/11/28 03:28:18;;;;;;;16.67;9.13;;;;;;;6.77;80.40;100787.91;5089383;28;20062;-26
2022/11/28 03:31:28;;;;;;;16.20;8.32;;;;;;;6.80;80.88;100771.66;5089496;28;20032;-30
2022/11/28 03:33:58;;;;;;;15.35;7.70;;;;;;;6.71;81.33;100777.19;5067434;28;20047;-28
2022/11/28 03:36:31;;;;;;;16.73;7.63;;;;;;;6.81;80.32;100783.06;5071179;28;20036;-27
2022/11/28 03:39:15;;;;;;;16.48;8.88;;;;;;;6.88;79.78;100778.69;5089496;28;20024;-26
2022/11/28 03:41:47;;;;;;;16.33;7.63;;;;;;;6.74;79.69;100756.44;5089487;28;20030;-27
2022/11/28 03:44:22;;;;;;;17.35;8.23;;;;;;;6.77;80.79;100781.78;5089010;28;20028;-31
2022/11/28 03:46:49;;;;;;;13.80;7.22;;;;;;;6.67;81.20;100770.59;5089315;28;20032;-26
2022/11/28 03:49:22;;;;;;;17.93;9.00;;;;;;;6.67;81.05;100758.16;5088953;28;20519;-28
2022/11/28 03:52:02;;;;;;;16.55;8.15;;;;;;;6.58;81.29;100753.91;5089263;28;21151;-26
2022/11/28 03:54:33;;;;;;;15.30;7.65;;;;;;;6.62;81.46;100763.16;5089068;28;20555;-27
2022/11/28 03:57:16;;;;;;;16.17;7.57;;;;;;;6.68;82.14;100770.41;5070760;28;20024;-27
2022/11/28 03:59:50;;;;;;;14.18;8.05;;;;;;;6.70;80.97;100768.41;5071094;28;20445;-34
2022/11/28 04:02:37;;;;;;;16.27;7.57;;;;;;;6.72;81.11;100763.75;5089015;28;20028;-27
2022/11/28 04:05:27;;;;;;;14.50;8.13;;;;;;;6.70;81.57;100768.41;5088647;28;20056;-26
2022/11/28 04:08:08;;;;;;;19.15;8.30;;;;;;;6.46;81.85;100760.59;5070342;28;20063;-27
2022/11/28 04:10:55;;;;;;;15.07;7.00;;;;;;;6.46;81.61;100742.88;5089013;28;20032;-28
2022/11/28 04:13:26;;;;;;;14.00;6.80;;;;;;;6.57;81.00;100776.91;5070352;28;20032;-25
2022/11/28 04:16:07;;;;;;;12.50;6.40;;;;;;;6.47;81.48;100780.78;5088452;28;20028;-27
2022/11/28 04:18:50;;;;;;;14.05;7.40;;;;;;;6.52;81.29;100778.44;5088459;28;20384;-30
2022/11/28 04:21:31;;;;;;;15.18;6.82;;;;;;;6.65;79.81;100778.69;5088499;28;20028;-28
2022/11/28 04:24:05;;;;;;;13.77;7.20;;;;;;;6.60;80.48;100791.66;5088141;28;20036;-30
2022/11/28 04:26:33;;;;;;;14.18;6.90;;;;;;;6.65;80.18;100786.66;5088409;28;20031;-26
2022/11/28 04:29:02;;;;;;;13.90;7.88;;;;;;;6.66;79.66;100788.31;5088642;28;20107;-26
2022/11/28 04:31:29;;;;;;;14.40;7.32;;;;;;;6.26;80.45;100762.88;5070814;28;20032;-29
2022/11/28 04:34:01;;;;;;;19.27;8.27;;;;;;;6.09;81.38;100770.03;5088435;28;20027;-27
2022/11/28 04:36:28;;;;;;;15.10;8.02;;;;;;;6.18;82.12;100788.38;5088255;28;20125;-27
2022/11/28 04:38:56;;;;;;;16.38;8.05;;;;;;;5.86;83.48;100768.13;5069979;28;20097;-30
2022/11/28 04:41:30;;;;;;;18.77;8.90;;;;;;;6.03;83.69;100795.41;5088098;28;20511;-25
2022/11/28 04:44:06;;;;;;;19.20;10.05;;;;;;;5.81;84.46;100762.53;5088184;28;20073;-28
2022/11/28 04:46:38;;;;;;;15.52;7.30;;;;;;;6.02;84.45;100794.56;5087624;28;20031;-29
2022/11/28 04:49:03;;;;;;;16.83;8.38;;;;;;;6.01;84.01;100781.53;5087980;28;20057;-27
2022/11/28 04:51:35;;;;;;;18.15;8.88;;;;;;;6.10;85.10;100811.44;5087755;28;20453;-29
2022/11/28 04:54:09;;;;;;;18.27;8.70;;;;;;;5.92;85.90;100815.09;5087936;28;20132;-28
2022/11/28 04:56:51;;;;;;;17.27;8.98;;;;;;;5.83;86.36;100811.63;5087803;28;20031;-26
2022/11/28 04:59:19;;;;;;;16.48;8.82;;;;;;;5.76;86.61;100801.88;5087834;28;20033;-26
2022/11/28 05:01:47;;;;;;;18.08;8.73;;;;;;;5.91;86.85;100818.75;5087705;28;20031;-29
2022/11/28 05:04:13;;;;;;;21.05;9.20;;;;;;;5.87;87.18;100806.03;5087434;28;20212;-30
2022/11/28 05:06:38;;;;;;;18.58;9.32;;;;;;;6.04;86.77;100808.44;5069205;28;20159;-27
2022/11/28 05:09:04;;;;;;;18.45;9.10;;;;;;;6.06;86.73;100804.81;5087740;28;20495;-27
2022/11/28 05:11:30;;;;;;;18.40;9.35;;;;;;;6.07;85.72;100790.56;5069082;28;20032;-27
2022/11/28 05:13:55;;;;;;;17.45;8.30;;;;;;;5.97;85.48;100804.84;5087723;28;20020;-26
2022/11/28 05:16:22;;;;;;;18.05;8.85;;;;;;;6.13;85.53;100816.38;5087406;28;20086;-29
2022/11/28 05:18:48;;;;;;;17.90;8.63;;;;;;;5.90;86.38;100803.84;5069130;28;20028;-27
2022/11/28 05:21:13;;;;;;;19.08;8.80;;;;;;;6.13;86.14;100821.66;5087702;28;20039;-27
2022/11/28 05:23:42;;;;;;;18.77;8.57;;;;;;;6.04;85.62;100800.50;5087403;28;20407;-28
2022/11/28 05:26:07;;;;;;;;;;;;;;;6.16;85.83;100816.84;5069500;28;20039;-27
2022/11/28 05:28:33;;;;;;;19.20;8.95;;;;;;;5.88;86.15;100784.66;5087407;28;19912;-27
2022/11/28 05:31:00;;;;;;;20.35;8.98;;;;;;;6.08;86.03;100813.41;5087420;28;20054;-27
2022/11/28 05:33:29;;;;;;;14.90;7.75;;;;;;;6.04;84.61;100794.41;5068991;28;20020;-26
2022/11/28 05:35:54;;;;;;;;;;;;;;;6.18;83.95;100808.75;5069729;28;20498;-29
2022/11/28 05:38:19;;;;;;;16.08;7.47;;;;;;;6.04;84.07;100797.88;5087085;28;19948;-26
2022/11/28 05:40:45;;;;;;;15.65;7.55;;;;;;;6.09;84.44;100810.63;5068812;28;20059;-26
2022/11/28 05:43:11;;;;;;;16.10;7.35;;;;;;;6.07;85.40;100811.75;5068887;28;20024;-29
2022/11/28 05:45:41;;;;;;;14.40;7.72;;;;;;;6.10;84.29;100801.66;5086718;28;20031;-26
2022/11/28 05:48:06;;;;;;;16.67;7.38;;;;;;;6.08;83.91;100805.47;5086776;28;20839;-27
2022/11/28 05:50:32;;;;;;;16.95;7.57;;;;;;;5.95;84.60;100806.03;5068830;28;20032;-28
2022/11/28 05:52:57;;;;;;;15.10;7.35;;;;;;;6.04;83.44;100803.16;5086716;28;20046;-27
2022/11/28 05:55:23;;;;;;;14.73;7.45;;;;;;;5.94;84.84;100807.78;5068373;28;20035;-27
2022/11/28 05:57:48;;;;;;;17.45;8.23;;;;;;;5.82;85.04;100786.19;5086799;28;20024;-27
2022/11/28 06:00:14;;;;;;;15.15;7.75;;;;;;;5.93;84.87;100808.81;5086421;28;20430;-27
2022/11/28 06:02:40;;;;;;;14.23;7.10;;;;;;;6.02;84.59;100794.56;5086914;28;20020;-27
2022/11/28 06:05:06;;;;;;;24.15;10.50;;;;;;;6.02;84.93;100794.56;5086577;28;20043;-26
2022/11/28 06:07:31;;;;;;;29.23;13.80;;;;;;;6.09;85.07;100801.81;5085424;28;20051;-27
2022/11/28 06:09:58;;;;;;;30.60;13.15;;;;;;;6.03;84.41;100800.69;5086231;28;20055;-26
2022/11/28 06:12:23;;;;;;;23.75;11.63;;;;;;;6.13;84.86;100803.13;5085127;28;20032;-26
2022/11/28 06:14:49;;;;;;;50.38;20.83;;;;;;;5.95;85.24;100809.50;5051568;28;20032;-27
2022/11/28 06:17:14;;;;;;;22.98;12.27;;;;;;;5.89;84.48;100783.66;5086534;28;20032;-28
2022/11/28 06:19:40;;;;;;;20.58;11.20;;;;;;;5.78;86.98;100813.13;5086734;28;20555;-27
2022/11/28 06:22:05;;;;;;;20.10;10.35;;;;;;;5.87;86.59;100806.84;5086296;28;20020;-29
2022/11/28 06:24:30;;;;;;;18.50;9.02;;;;;;;5.84;88.48;100812.47;5086677;28;20115;-27
2022/11/28 06:26:56;;;;;;;18.95;8.50;;;;;;;5.85;87.72;100806.19;5068182;28;20050;-28
2022/11/28 06:29:21;;;;;;;19.40;8.18;;;;;;;5.70;88.77;100807.84;5086809;28;20103;-26
2022/11/28 06:31:47;;;;;;;18.50;7.97;;;;;;;5.54;90.08;100780.44;5086605;28;20028;-28
2022/11/28 06:34:12;;;;;;;17.23;8.15;;;;;;;5.71;89.30;100783.06;5086182;28;20038;-28
2022/11/28 06:36:38;;;;;;;16.80;7.97;;;;;;;5.71;89.08;100801.59;5068496;28;20032;-26
2022/11/28 06:39:04;;;;;;;13.65;7.60;;;;;;;5.69;89.88;100799.09;5086397;28;20080;-26
2022/11/28 06:41:29;;;;;;;17.85;9.07;;;;;;;5.76;89.01;100793.94;5086437;28;20873;-28
2022/11/28 06:43:55;;;;;;;15.73;7.97;;;;;;;5.62;89.40;100803.44;5086412;28;20511;-28
2022/11/28 06:46:21;;;;;;;18.30;8.10;;;;;;;5.61;89.77;100807.06;5084701;28;20024;-27
2022/11/28 06:48:49;;;;;;;17.15;8.20;;;;;;;5.74;89.83;100796.78;5068456;28;20589;-28
2022/11/28 06:51:15;;;;;;;18.10;8.25;;;;;;;5.74;89.09;100811.81;5086218;28;20030;-27
2022/11/28 06:53:41;;;;;;;15.02;7.90;;;;;;;5.84;88.61;100784.19;5086319;28;20032;-26
2022/11/28 06:56:12;;;;;;;18.10;8.20;;;;;;;5.96;88.11;100805.84;5085970;28;20028;-27
2022/11/28 06:58:38;;;;;;;16.13;7.85;;;;;;;5.65;88.55;100808.38;5086055;28;20053;-27
2022/11/28 07:01:09;;;;;;;19.08;10.07;;;;;;;5.84;88.94;100808.00;5086262;28;20028;-27
2022/11/28 07:03:35;;;;;;;19.35;9.40;;;;;;;5.79;89.44;100804.22;5086289;28;20707;-27
2022/11/28 07:06:02;;;;;;;27.85;13.18;;;;;;;5.72;90.03;100792.63;5085766;28;20523;-29
2022/11/28 07:08:30;;;;;;;21.67;10.55;;;;;;;5.94;90.78;100809.63;5069269;28;20087;-27
2022/11/28 07:10:56;;;;;;;32.40;14.20;;;;;;;5.93;90.72;100814.09;5089586;28;20083;-30
2022/11/28 07:13:23;;;;;;;27.75;12.93;;;;;;;5.77;90.30;100793.78;5071223;28;20024;-26
2022/11/28 07:15:49;;;;;;;17.77;9.40;;;;;;;5.91;91.67;100812.63;5089819;28;20036;-28
2022/11/28 07:18:15;;;;;;;23.13;10.38;;;;;;;5.88;93.14;100813.78;5088287;28;20085;-30
2022/11/28 07:20:40;;;;;;;19.38;8.38;;;;;;;5.90;93.46;100814.44;5089835;28;20024;-26
2022/11/28 07:23:06;;;;;;;18.50;9.02;;;;;;;5.75;96.11;100809.00;5089616;28;20024;-28
2022/11/28 07:25:31;;;;;;;19.05;9.10;;;;;;;5.70;96.41;100784.88;5089724;28;20505;-28
2022/11/28 07:27:59;;;;;;;26.08;12.95;;;;;;;6.11;96.57;100802.47;5089395;28;20032;-29
2022/11/28 07:30:24;;;;;;;20.67;10.02;;;;;;;5.98;95.74;100787.13;5089933;28;20062;-30
2022/11/28 07:32:50;;;;;;;20.35;9.57;;;;;;;5.83;96.13;100779.06;5089540;28;20024;-27
2022/11/28 07:35:15;;;;;;;21.73;10.38;;;;;;;5.89;97.54;100799.56;5089472;28;20032;-28
2022/11/28 07:37:41;;;;;;;20.60;10.18;;;;;;;6.02;97.54;100810.44;5089518;28;20020;-27
2022/11/28 07:40:07;;;;;;;18.05;8.98;;;;;;;6.15;96.13;100798.47;5089546;28;20036;-29
2022/11/28 07:42:32;;;;;;;25.48;12.32;;;;;;;6.13;95.57;100789.88;5089183;28;20055;-28
2022/11/28 07:44:58;;;;;;;21.55;10.43;;;;;;;5.92;97.12;100772.72;5089084;28;20028;-27
2022/11/28 07:47:23;;;;;;;17.20;9.48;;;;;;;6.07;97.97;100790.56;5089379;28;20026;-27
2022/11/28 07:49:49;;;;;;;25.40;11.30;;;;;;;6.15;97.47;100791.38;5089115;28;20110;-29
2022/11/28 07:52:14;;;;;;;21.48;10.40;;;;;;;6.02;98.19;100768.09;5070654;28;20488;-27
2022/11/28 07:54:40;;;;;;;21.23;9.68;;;;;;;6.12;97.37;100772.38;5088938;28;20097;-28
2022/11/28 07:57:05;;;;;;;20.17;9.65;;;;;;;6.26;97.04;100781.41;5088699;28;20455;-29
2022/11/28 07:59:31;;;;;;;20.50;10.70;;;;;;;6.24;96.75;100769.16;5089145;28;20468;-27
2022/11/28 08:01:56;;;;;;;13.18;6.90;;;;;;;5.77;97.27;100771.78;5088729;28;20051;-28
2022/11/28 08:04:22;;;;;;;17.42;8.73;;;;;;;6.12;97.76;100793.53;5070361;28;20115;-29
2022/11/28 08:06:47;;;;;;;17.67;9.52;;;;;;;6.14;98.35;100786.25;5088685;28;20063;-26
2022/11/28 08:09:13;;;;;;;19.42;10.20;;;;;;;5.92;97.25;100798.38;5087314;28;20484;-27
2022/11/28 08:11:38;;;;;;;19.35;9.05;;;;;;;6.00;97.78;100783.31;5070435;28;20036;-28
2022/11/28 08:14:04;;;;;;;17.75;9.57;;;;;;;6.27;97.02;100797.09;5088858;28;20084;-28
2022/11/28 08:16:31;;;;;;;15.27;7.82;;;;;;;6.09;96.62;100788.59;5088678;28;20486;-29
2022/11/28 08:18:58;;;;;;;22.92;11.45;;;;;;;6.09;97.05;100793.88;5088466;28;20491;-27
2022/11/28 08:21:29;;;;;;;20.23;8.98;;;;;;;6.15;96.91;100790.53;5088412;28;20036;-27
2022/11/28 08:23:57;;;;;;;16.77;8.88;;;;;;;5.92;99.26;100791.25;5088623;28;20792;-29
2022/11/28 08:26:23;;;;;;;;;;;;;;;5.97;98.68;100796.91;5070910;28;20495;-27
2022/11/28 08:28:50;;;;;;;18.75;8.88;;;;;;;5.97;99.67;100791.63;5088248;28;19969;-30
2022/11/28 08:31:17;;;;;;;17.15;8.55;;;;;;;5.80;98.88;100790.81;5088843;28;20032;-29
2022/11/28 08:33:43;;;;;;;18.70;8.35;;;;;;;5.82;100.00;100778.25;5088473;28;20062;-30
2022/11/28 08:36:10;;;;;;;17.13;8.38;;;;;;;5.90;99.80;100774.72;5087990;28;20028;-26
2022/11/28 08:38:37;;;;;;;15.98;8.40;;;;;;;5.96;99.02;100773.25;5087196;28;20028;-32
2022/11/28 08:41:08;;;;;;;17.38;8.57;;;;;;;5.78;99.31;100776.06;5088156;28;20032;-25
2022/11/28 08:43:35;;;;;;;20.05;9.45;;;;;;;5.76;99.61;100751.59;5088122;28;20024;-27
2022/11/28 08:46:01;;;;;;;41.17;18.85;;;;;;;6.07;99.63;100772.88;5087752;28;20083;-28
2022/11/28 08:48:27;;;;;;;17.63;9.80;;;;;;;5.83;99.07;100742.00;5053054;28;20482;-28
2022/11/28 08:50:53;;;;;;;19.05;10.85;;;;;;;5.80;99.54;100764.34;5088076;28;20036;-28
2022/11/28 08:53:18;;;;;;;20.30;10.00;;;;;;;5.90;99.56;100764.13;5087659;28;20080;-31
2022/11/28 08:55:43;;;;;;;21.00;10.73;;;;;;;5.93;100.00;100747.09;5088025;28;20031;-27
2022/11/28 08:58:13;;;;;;;19.60;9.18;;;;;;;6.11;100.00;100765.41;5087445;28;20036;-28
2022/11/28 09:00:39;;;;;;;16.77;9.05;;;;;;;6.25;99.55;100762.03;5087715;28;20066;-29
2022/11/28 09:03:05;;;;;;;16.58;8.30;;;;;;;6.07;98.85;100764.09;5087416;28;20198;-27
2022/11/28 09:05:31;;;;;;;17.08;8.85;;;;;;;6.12;99.13;100761.78;5087193;28;20061;-29
2022/11/28 09:07:57;;;;;;;18.80;9.63;;;;;;;6.07;98.69;100750.84;5087505;28;20048;-30
2022/11/28 09:10:23;;;;;;;17.27;8.30;;;;;;;6.07;98.54;100737.63;5087943;28;20039;-27
2022/11/28 09:12:49;;;;;;;17.08;8.10;;;;;;;6.08;98.66;100749.88;5087540;28;20051;-27
2022/11/28 09:15:15;;;;;;;16.27;7.82;;;;;;;5.70;98.66;100717.88;5069055;28;20746;-33
2022/11/28 09:17:40;;;;;;;15.85;8.45;;;;;;;6.00;98.42;100751.53;5087464;28;20031;-27
2022/11/28 09:20:06;;;;;;;18.75;8.82;;;;;;;5.99;98.70;100744.63;5086967;28;20032;-30
2022/11/28 09:22:32;;;;;;;16.52;8.43;;;;;;;5.82;99.47;100714.72;5086980;28;20059;-29
2022/11/28 09:24:58;;;;;;;17.23;8.38;;;;;;;6.07;99.77;100737.63;5087359;28;20016;-26
2022/11/28 09:27:23;;;;;;;22.08;9.75;;;;;;;6.12;98.92;100735.28;5087242;28;20027;-30
2022/11/28 09:29:49;;;;;;;32.53;14.02;;;;;;;6.10;99.06;100718.75;5087188;28;20028;-28
2022/11/28 09:32:14;;;;;;;25.13;11.65;;;;;;;6.02;98.98;100736.31;5086260;28;20024;-29
2022/11/28 09:34:40;;;;;;;17.15;8.60;;;;;;;5.83;100.00;100737.53;5069055;28;20026;-26
2022/11/28 09:37:05;;;;;;;16.85;7.88;;;;;;;5.71;100.00;100709.78;5087026;28;20028;-26
2022/11/28 09:39:31;;;;;;;18.25;7.80;;;;;;;5.61;100.00;100723.19;5087626;28;20028;-26
2022/11/28 09:42:25;;;;;;;29.33;11.15;;;;;;;5.69;100.00;100721.53;5087219;28;20032;-33
2022/11/28 09:44:59;;;;;;;19.23;9.25;;;;;;;5.51;100.00;100690.00;5086912;28;20024;-29
2022/11/28 09:47:27;;;;;;;16.00;7.95;;;;;;;5.47;100.00;100678.13;5086544;28;20085;-30
2022/11/28 09:50:19;;;;;;;21.77;10.55;;;;;;;5.69;100.00;100698.53;5086832;28;20161;-28
2022/11/28 09:52:55;;;;;;;17.63;9.30;;;;;;;5.91;100.00;100706.75;5086710;28;20027;-27
2022/11/28 09:55:20;;;;;;;19.65;9.57;;;;;;;5.75;100.00;100715.56;5086650;28;20028;-28
2022/11/28 09:57:51;;;;;;;20.20;8.15;;;;;;;5.68;100.00;100704.84;5085061;28;20473;-27
2022/11/28 10:00:33;;;;;;;28.40;12.07;;;;;;;5.87;100.00;100708.91;5086666;28;20028;-26
2022/11/28 10:03:40;;;;;;;22.30;12.15;;;;;;;5.69;100.00;100709.13;5066598;28;20032;-28
2022/11/28 10:06:29;;;;;;;18.73;9.95;;;;;;;5.72;100.00;100700.00;5040003;28;20051;-30
2022/11/28 10:09:13;;;;;;;17.60;9.10;;;;;;;5.70;100.00;100688.78;5086815;28;20036;-29
2022/11/28 10:12:09;;;;;;;17.20;9.27;;;;;;;5.77;100.00;100690.56;5068099;28;20036;-28
2022/11/28 10:14:43;;;;;;;17.83;10.05;;;;;;;5.75;100.00;100665.28;5086225;28;20376;-26
2022/11/28 10:17:24;;;;;;;23.08;9.82;;;;;;;5.69;100.00;100690.59;5086282;28;20487;-28
2022/11/28 10:20:04;;;;;;;18.08;9.75;;;;;;;5.86;100.00;100683.41;5086537;28;20118;-27
2022/11/28 10:22:38;;;;;;;20.50;11.05;;;;;;;5.80;100.00;100686.75;5086499;28;20403;-28
2022/11/28 10:25:12;;;;;;;16.80;9.85;;;;;;;5.42;100.00;100665.41;5086446;28;20047;-26
2022/11/28 10:27:39;;;;;;;17.52;9.93;;;;;;;5.46;100.00;100682.59;5069041;28;20756;-33
2022/11/28 10:30:14;;;;;;;18.90;10.30;;;;;;;5.64;100.00;100679.72;5086146;28;20066;-26
2022/11/28 10:32:42;;;;;;;22.40;9.75;;;;;;;5.51;100.00;100677.59;5067973;28;20032;-27
2022/11/28 10:35:17;;;;;;;17.00;10.05;;;;;;;5.56;100.00;100685.88;5086111;28;20070;-29
2022/11/28 10:37:43;;;;;;;16.30;8.45;;;;;;;5.59;100.00;100680.22;5086404;28;20053;-29
2022/11/28 10:40:34;;;;;;;19.77;11.25;;;;;;;5.94;100.00;100675.44;5067873;28;20809;-27
2022/11/28 10:43:19;;;;;;;17.30;9.15;;;;;;;5.76;100.00;100656.31;5049511;28;20392;-28
2022/11/28 10:46:04;;;;;;;17.42;10.02;;;;;;;5.84;100.00;100674.81;5089889;28;20028;-31
2022/11/28 10:49:18;;;;;;;19.38;11.05;;;;;;;5.84;100.00;100675.66;5075328;28;20042;-26
2022/11/28 10:51:58;;;;;;;19.05;10.20;;;;;;;5.68;100.00;100665.16;5027227;28;20044;-26
2022/11/28 10:54:32;;;;;;;17.95;9.50;;;;;;;5.50;100.00;100668.03;5090379;28;20470;-30
2022/11/28 10:57:13;;;;;;;19.80;9.63;;;;;;;5.64;100.00;100656.72;5089628;28;20103;-31
2022/11/28 10:59:38;;;;;;;20.00;9.82;;;;;;;5.79;100.00;100650.69;5089925;28;20104;-28
2022/11/28 11:02:25;;;;;;;14.52;9.07;;;;;;;5.78;100.00;100654.34;5089856;28;20773;-27
2022/11/28 11:04:51;;;;;;;18.08;10.02;;;;;;;5.69;100.00;100628.91;5089905;28;20027;-29
2022/11/28 11:07:24;;;;;;;15.05;8.50;;;;;;;5.90;100.00;100644.19;5089666;28;20052;-29
2022/11/28 11:09:50;;;;;;;18.75;10.20;;;;;;;5.96;100.00;100638.22;5090042;28;20035;-30
2022/11/28 11:12:24;;;;;;;15.88;9.10;;;;;;;5.90;100.00;100647.66;5088033;28;20074;-28
2022/11/28 11:14:50;;;;;;;16.55;8.75;;;;;;;6.08;100.00;100646.59;5089407;28;20077;-26
2022/11/28 11:17:24;;;;;;;17.85;10.07;;;;;;;6.04;100.00;100654.06;5089581;28;20036;-27
2022/11/28 11:19:49;;;;;;;17.15;8.55;;;;;;;6.03;100.00;100637.34;5089512;28;20020;-29
2022/11/28 11:22:19;;;;;;;23.45;12.80;;;;;;;6.06;100.00;100640.66;5089324;28;20040;-28
2022/11/28 11:25:05;;;;;;;66.75;28.60;;;;;;;6.09;100.00;100629.69;5089479;28;20036;-30
2022/11/28 11:27:31;;;;;;;16.83;8.90;;;;;;;5.90;100.00;100637.06;5089085;28;20534;-26
2022/11/28 11:29:58;;;;;;;18.73;10.30;;;;;;;5.80;100.00;100631.16;5088969;28;20543;-29
2022/11/28 11:32:28;;;;;;;16.15;8.45;;;;;;;5.74;100.00;100626.56;5089683;28;20089;-28
2022/11/28 11:34:56;;;;;;;17.02;9.75;;;;;;;5.58;100.00;100612.44;5087452;28;20028;-28
2022/11/28 11:37:27;;;;;;;16.08;9.23;;;;;;;5.79;100.00;100624.22;5071424;28;20040;-26
2022/11/28 11:39:53;;;;;;;18.20;9.23;;;;;;;5.95;100.00;100626.00;5050235;28;20437;-29